Weather at Coral Bay Airport

Public forecast

Using degrees Celsius for public forecast. Weather courtesy of forecast.io.

Closest aviation weather report (METAR) to Coral Bay Airport

Closest report is Learmonth Airport, 56.3 nm (104.3 km) NNE.

2024/06/15 16:30 (retrieved 40 minutes ago)

YPLM 151630Z AUTO 10009KT 2800 DZ BR OVC004 22/21 Q1014 RF004/0292

Closest aviation forecast (TAF) to Coral Bay Airport

Closest forecast is Learmonth Airport, 56.3 nm (104.3 km) NNE.

2024/06/15 16:16 Ammendment (retrieved 54 minutes ago)

TAF AMD YPLM 151614Z 1516/1612 10009KT 4000 RA SCT005 BKN010 FM151800 01010KT 6000 RA SCT005 BKN010 FM160200 35010KT 9999 -RA SCT015 BKN025 TEMPO 1516/1612 2000 SHRA BKN004